Denver, Colorado
Current Conditions -  °F | °C
As of 10:58 AM on Wednesday 28 Jan 2015 (Local Time) from KBKF Reporting Station
Few Clouds Few Clouds  
Wind Chill: 55°   Ceiling: Unl
Heat Index: 55°   Visibility: 10mi
Dew Point: 19°   Wind: 28mph
Humidity: 24%   Direction: 300°WNW
Pressure: 30.08"   Gusts: 35mph
Location:  39.74°N, 104.99°W
Report Text: KBKF 281758Z 30024G30KT 10SM FEW110 FEW220 13/M07 A3008 RMK AO2A PK WND 31033/57 SLP151 T01291075 10129 20045 50006
Loading
Personal Weather Stations






























Interactive Weather Map New forecast layout! Learn more

10-Day Weather Forecast

Advertisements
Track Severe Weather on mobile